createdAt,value
2022-08-03T00:00:30.393Z,101387.28
2022-08-03T00:02:57.276Z,101382.16
2022-08-03T00:05:24.236Z,101385.97
2022-08-03T00:07:51.063Z,101391.06
2022-08-03T00:10:19.854Z,101384.41
2022-08-03T00:12:46.786Z,101384.06
2022-08-03T00:15:16.663Z,101379.31
2022-08-03T00:17:53.626Z,101380.47
2022-08-03T00:20:24.386Z,101377.22
2022-08-03T00:22:52.475Z,101371.44
2022-08-03T00:25:19.606Z,101371.56
2022-08-03T00:27:48.397Z,101369.50
2022-08-03T00:30:17.214Z,101375.28
2022-08-03T00:32:45.275Z,101375.69
2022-08-03T00:35:27.376Z,101370.31
2022-08-03T00:37:59.885Z,101369.09
2022-08-03T00:40:27.133Z,101365.66
2022-08-03T00:42:56.528Z,101368.31
2022-08-03T00:45:28.884Z,101361.00
2022-08-03T00:47:56.286Z,101361.63
2022-08-03T00:50:24.869Z,101372.19
2022-08-03T00:52:54.020Z,101364.09
2022-08-03T00:55:21.100Z,101367.69
2022-08-03T00:57:48.586Z,101364.19
2022-08-03T01:00:18.786Z,101365.69
2022-08-03T01:02:46.400Z,101370.78
2022-08-03T01:05:13.948Z,101360.53
2022-08-03T01:07:40.715Z,101366.66
2022-08-03T01:10:41.886Z,101358.78
2022-08-03T01:14:03.800Z,101359.94
2022-08-03T01:16:25.811Z,101355.34
2022-08-03T01:19:25.562Z,101361.34
2022-08-03T01:21:52.321Z,101356.28
2022-08-03T01:24:32.135Z,101362.72
2022-08-03T01:26:58.889Z,101358.41
2022-08-03T01:30:07.930Z,101352.72
2022-08-03T01:32:52.527Z,101350.44
2022-08-03T01:35:47.065Z,101342.00
2022-08-03T01:38:22.301Z,101349.53
2022-08-03T01:40:52.270Z,101336.06
2022-08-03T01:43:55.331Z,101340.22
2022-08-03T01:46:11.565Z,101333.16
2022-08-03T01:48:40.128Z,101324.50
2022-08-03T01:51:09.530Z,101326.84
2022-08-03T01:53:42.803Z,101332.72
2022-08-03T01:56:10.608Z,101329.81
2022-08-03T01:58:39.370Z,101326.28
2022-08-03T02:01:06.953Z,101326.69
2022-08-03T02:03:37.258Z,101320.22
2022-08-03T02:07:01.755Z,101318.25
2022-08-03T02:08:55.430Z,101319.06
2022-08-03T02:11:22.651Z,101314.69
2022-08-03T02:13:51.135Z,101316.91
2022-08-03T02:16:19.084Z,101317.84
2022-08-03T02:18:48.310Z,101318.78
2022-08-03T02:21:48.246Z,101318.91
2022-08-03T02:24:04.489Z,101320.28
2022-08-03T02:26:32.088Z,101310.47
2022-08-03T02:29:05.727Z,101316.09
2022-08-03T02:31:37.025Z,101311.56
2022-08-03T02:34:10.252Z,101310.75
2022-08-03T02:36:39.697Z,101302.25
2022-08-03T02:39:09.973Z,101315.06
2022-08-03T02:41:50.247Z,101306.16
2022-08-03T02:44:24.289Z,101309.53
2022-08-03T02:46:55.970Z,101300.75
2022-08-03T02:49:42.708Z,101300.25
2022-08-03T02:52:15.764Z,101302.69
2022-08-03T02:54:44.362Z,101302.25
2022-08-03T02:57:12.494Z,101303.69
2022-08-03T02:59:41.050Z,101307.19
2022-08-03T03:02:09.468Z,101299.06
2022-08-03T03:04:37.083Z,101301.47
2022-08-03T03:07:04.522Z,101297.38
2022-08-03T03:09:40.368Z,101300.06
2022-08-03T03:12:10.437Z,101291.06
2022-08-03T03:14:38.129Z,101298.81
2022-08-03T03:17:07.175Z,101292.34
2022-08-03T03:19:35.135Z,101294.00
2022-08-03T03:22:03.782Z,101287.81
2022-08-03T03:24:31.050Z,101295.53
2022-08-03T03:26:58.860Z,101293.25
2022-08-03T03:29:26.177Z,101294.06
2022-08-03T03:31:54.189Z,101294.75
2022-08-03T03:34:21.251Z,101295.13
2022-08-03T03:36:48.271Z,101297.75
2022-08-03T03:39:15.475Z,101297.13
2022-08-03T03:41:43.789Z,101287.09
2022-08-03T03:44:10.683Z,101284.09
2022-08-03T03:46:38.897Z,101295.34
2022-08-03T03:49:07.486Z,101292.75
2022-08-03T03:51:34.838Z,101292.13
2022-08-03T03:54:05.836Z,101292.56
2022-08-03T03:56:32.895Z,101286.91
2022-08-03T03:59:01.116Z,101288.66
2022-08-03T04:01:28.709Z,101297.44
2022-08-03T04:03:55.622Z,101294.75
2022-08-03T04:06:40.897Z,101300.09
2022-08-03T04:09:29.314Z,101303.75
2022-08-03T04:12:01.184Z,101303.16
2022-08-03T04:14:35.196Z,101302.41
2022-08-03T04:17:04.172Z,101308.78
2022-08-03T04:19:35.892Z,101298.69
2022-08-03T04:22:09.859Z,101297.53
2022-08-03T04:24:53.682Z,101292.69
2022-08-03T04:27:27.424Z,101299.63
2022-08-03T04:29:57.020Z,101294.00
2022-08-03T04:32:28.667Z,101298.13
2022-08-03T04:34:56.083Z,101308.81
2022-08-03T04:37:47.899Z,101311.31
2022-08-03T04:40:25.377Z,101318.34
2022-08-03T04:42:58.631Z,101315.16
2022-08-03T04:45:27.245Z,101320.59
2022-08-03T04:47:55.095Z,101315.41
2022-08-03T04:50:22.856Z,101311.13
2022-08-03T04:53:05.242Z,101321.41
2022-08-03T04:55:33.550Z,101324.13
2022-08-03T04:58:02.352Z,101334.63
2022-08-03T05:00:30.122Z,101331.63
2022-08-03T05:02:57.011Z,101331.06
2022-08-03T05:05:24.039Z,101326.88
2022-08-03T05:07:51.128Z,101332.56
2022-08-03T05:10:18.366Z,101329.56
2022-08-03T05:12:47.653Z,101329.00
2022-08-03T05:15:14.870Z,101338.78
2022-08-03T05:17:42.020Z,101339.53
2022-08-03T05:20:10.054Z,101339.03
2022-08-03T05:22:36.925Z,101335.63
2022-08-03T05:25:03.972Z,101339.63
2022-08-03T05:27:31.021Z,101330.09
2022-08-03T05:30:30.620Z,101337.00
2022-08-03T05:32:44.846Z,101333.06
2022-08-03T05:35:57.302Z,101327.63
2022-08-03T05:37:58.489Z,101327.22
2022-08-03T05:40:25.328Z,101333.97
2022-08-03T05:42:53.807Z,101338.06
2022-08-03T05:45:23.202Z,101336.66
2022-08-03T05:47:53.750Z,101334.19
2022-08-03T05:50:21.239Z,101334.06
2022-08-03T05:52:48.140Z,101338.34
2022-08-03T05:55:15.415Z,101325.91
2022-08-03T05:57:42.542Z,101331.69
2022-08-03T06:00:12.222Z,101329.69
2022-08-03T06:02:39.958Z,101333.25
2022-08-03T06:05:07.346Z,101332.84
2022-08-03T06:07:34.547Z,101325.84
2022-08-03T06:10:37.577Z,101321.44
2022-08-03T06:12:51.325Z,101336.66
2022-08-03T06:15:20.495Z,101341.13
2022-08-03T06:17:52.224Z,101335.47
2022-08-03T06:20:21.200Z,101341.13
2022-08-03T06:22:51.404Z,101333.41
2022-08-03T06:25:27.432Z,101339.66
2022-08-03T06:27:54.255Z,101334.72
2022-08-03T06:30:21.596Z,101333.47
2022-08-03T06:32:51.703Z,101341.38
2022-08-03T06:35:20.171Z,101345.59
2022-08-03T06:37:51.254Z,101333.47
2022-08-03T06:40:24.308Z,101335.53
2022-08-03T06:42:51.637Z,101328.59
2022-08-03T06:45:18.663Z,101325.31
2022-08-03T06:47:45.701Z,101329.69
2022-08-03T06:50:16.245Z,101321.56
2022-08-03T06:52:45.369Z,101328.81
2022-08-03T06:55:12.369Z,101328.94
2022-08-03T06:57:39.173Z,101335.38
2022-08-03T07:00:11.917Z,101341.41
2022-08-03T07:02:40.017Z,101343.38
2022-08-03T07:05:08.602Z,101343.13
2022-08-03T07:07:35.864Z,101347.09
2022-08-03T07:10:03.457Z,101343.47
2022-08-03T07:12:31.086Z,101345.06
2022-08-03T07:15:01.856Z,101347.13
2022-08-03T07:17:31.060Z,101346.66
2022-08-03T07:20:01.590Z,101335.09
2022-08-03T07:22:29.101Z,101348.13
2022-08-03T07:24:56.632Z,101346.50
2022-08-03T07:27:23.633Z,101342.22
2022-08-03T07:29:50.735Z,101347.59
2022-08-03T07:32:17.876Z,101350.03
2022-08-03T07:34:45.082Z,101353.88
2022-08-03T07:37:11.976Z,101348.13
2022-08-03T07:39:38.827Z,101347.31
2022-08-03T07:42:05.726Z,101343.19
2022-08-03T07:44:32.609Z,101342.81
2022-08-03T07:47:00.030Z,101342.34
2022-08-03T07:49:30.532Z,101341.66
2022-08-03T07:52:16.277Z,101342.47
2022-08-03T07:54:43.746Z,101339.72
2022-08-03T07:57:10.584Z,101341.97
2022-08-03T07:59:56.747Z,101351.31
2022-08-03T08:02:24.152Z,101352.53
2022-08-03T08:04:51.224Z,101354.63
2022-08-03T08:07:18.572Z,101358.38
2022-08-03T08:09:47.804Z,101358.41
2022-08-03T08:12:15.148Z,101367.28
2022-08-03T08:14:45.807Z,101369.19
2022-08-03T08:17:13.392Z,101365.69
2022-08-03T08:19:41.475Z,101363.16
2022-08-03T08:22:23.495Z,101365.41
2022-08-03T08:25:01.226Z,101360.47
2022-08-03T08:28:31.035Z,101365.75
2022-08-03T08:30:22.388Z,101363.97
2022-08-03T08:32:50.254Z,101370.03
2022-08-03T08:35:18.163Z,101358.69
2022-08-03T08:37:51.082Z,101369.34
2022-08-03T08:40:21.211Z,101381.00
2022-08-03T08:42:57.932Z,101373.91
2022-08-03T08:45:25.921Z,101378.09
2022-08-03T08:48:00.860Z,101365.22
2022-08-03T08:50:30.075Z,101381.94
2022-08-03T08:53:00.895Z,101378.50
2022-08-03T08:55:27.874Z,101368.75
2022-08-03T08:58:02.289Z,101378.53
2022-08-03T09:00:30.863Z,101373.34
2022-08-03T09:02:58.190Z,101384.84
2022-08-03T09:05:54.670Z,101381.31
2022-08-03T09:08:13.327Z,101382.94
2022-08-03T09:10:40.321Z,101376.84
2022-08-03T09:13:08.598Z,101375.94
2022-08-03T09:15:35.699Z,101382.22
2022-08-03T09:18:04.245Z,101389.31
2022-08-03T09:20:34.214Z,101381.28
2022-08-03T09:23:09.712Z,101384.00
2022-08-03T09:25:59.966Z,101377.84
2022-08-03T09:29:00.844Z,101376.97
2022-08-03T09:31:33.407Z,101380.41
2022-08-03T09:34:08.489Z,101384.84
2022-08-03T09:36:38.354Z,101380.44
2022-08-03T09:39:07.621Z,101378.66
2022-08-03T09:41:34.566Z,101379.56
2022-08-03T09:44:01.432Z,101379.59
2022-08-03T09:46:31.826Z,101373.41
2022-08-03T09:49:12.175Z,101372.44
2022-08-03T09:52:31.737Z,101370.72
2022-08-03T09:54:28.397Z,101384.00
2022-08-03T09:56:56.070Z,101368.06
2022-08-03T09:59:28.719Z,101375.00
2022-08-03T10:01:57.602Z,101371.50
2022-08-03T10:04:24.926Z,101374.06
2022-08-03T10:07:09.246Z,101372.28
2022-08-03T10:09:36.839Z,101369.66
2022-08-03T10:12:12.607Z,101373.16
2022-08-03T10:14:41.865Z,101382.00
2022-08-03T10:17:09.865Z,101369.63
2022-08-03T10:19:36.776Z,101366.06
2022-08-03T10:22:08.258Z,101372.19
2022-08-03T10:24:38.630Z,101366.63
2022-08-03T10:27:11.473Z,101372.69
2022-08-03T10:29:41.273Z,101371.84
2022-08-03T10:32:15.119Z,101366.69
2022-08-03T10:34:44.727Z,101368.72
2022-08-03T10:37:15.375Z,101366.00
2022-08-03T10:39:53.466Z,101366.88
2022-08-03T10:42:26.293Z,101367.44
2022-08-03T10:45:04.998Z,101362.19
2022-08-03T10:47:32.302Z,101378.16
2022-08-03T10:49:59.991Z,101363.31
2022-08-03T10:52:35.102Z,101374.31
2022-08-03T10:55:52.807Z,101368.88
2022-08-03T10:58:38.057Z,101369.84
2022-08-03T11:02:02.720Z,101362.63
2022-08-03T11:04:30.480Z,101361.69
2022-08-03T11:07:25.565Z,101355.44
2022-08-03T11:09:56.549Z,101353.63
2022-08-03T11:12:32.124Z,101358.88
2022-08-03T11:15:05.626Z,101358.75
2022-08-03T11:17:46.285Z,101347.81
2022-08-03T11:20:47.311Z,101355.81
2022-08-03T11:23:15.795Z,101355.84
2022-08-03T11:26:11.793Z,101357.22
2022-08-03T11:28:40.030Z,101356.47
2022-08-03T11:31:46.747Z,101351.03
2022-08-03T11:34:12.021Z,101354.03
2022-08-03T11:37:16.763Z,101352.31
2022-08-03T11:39:48.901Z,101348.41
2022-08-03T11:42:24.744Z,101350.66
2022-08-03T11:44:59.698Z,101334.38
2022-08-03T11:47:29.121Z,101352.59
2022-08-03T11:50:00.366Z,101348.13
2022-08-03T11:52:33.834Z,101348.09
2022-08-03T11:55:01.167Z,101348.34
2022-08-03T11:59:10.816Z,101340.75
2022-08-03T12:00:22.776Z,101348.53
2022-08-03T12:03:05.550Z,101349.03
2022-08-03T12:05:52.717Z,101355.47
2022-08-03T12:08:32.333Z,101358.38
2022-08-03T12:11:01.585Z,101356.78
2022-08-03T12:14:45.265Z,101357.50
2022-08-03T12:16:25.658Z,101354.75
2022-08-03T12:19:10.789Z,101350.72
2022-08-03T12:21:57.231Z,101355.00
2022-08-03T12:24:24.503Z,101351.75
2022-08-03T12:26:58.362Z,101348.34
2022-08-03T12:29:27.679Z,101349.22
2022-08-03T12:31:56.137Z,101349.69
2022-08-03T12:34:23.363Z,101356.16
2022-08-03T12:36:59.213Z,101350.09
2022-08-03T12:39:30.913Z,101359.09
2022-08-03T12:41:58.137Z,101356.78
2022-08-03T12:44:34.605Z,101356.25
2022-08-03T12:47:03.168Z,101366.84
2022-08-03T12:49:46.963Z,101363.41
2022-08-03T12:52:14.505Z,101357.50
2022-08-03T12:54:41.911Z,101366.50
2022-08-03T12:57:15.799Z,101351.94
2022-08-03T12:59:52.653Z,101360.59
2022-08-03T13:02:24.077Z,101362.34
2022-08-03T13:04:53.953Z,101363.63
2022-08-03T13:07:22.085Z,101370.84
2022-08-03T13:09:50.689Z,101361.78
2022-08-03T13:12:20.979Z,101375.09
2022-08-03T13:14:50.838Z,101369.09
2022-08-03T13:17:18.676Z,101365.81
2022-08-03T13:19:46.463Z,101368.66
2022-08-03T13:22:18.892Z,101372.22
2022-08-03T13:24:47.529Z,101372.22
2022-08-03T13:28:03.803Z,101378.09
2022-08-03T13:30:01.725Z,101377.88
2022-08-03T13:32:28.852Z,101371.56
2022-08-03T13:34:55.754Z,101373.19
2022-08-03T13:37:23.031Z,101371.63
2022-08-03T13:39:59.692Z,101363.38
2022-08-03T13:42:29.548Z,101367.16
2022-08-03T13:44:56.486Z,101359.75
2022-08-03T13:47:23.413Z,101361.22
2022-08-03T13:49:59.886Z,101356.28
2022-08-03T13:52:28.284Z,101355.44
2022-08-03T13:54:55.353Z,101357.41
2022-08-03T13:58:18.989Z,101355.88
2022-08-03T14:00:09.956Z,101364.13
2022-08-03T14:02:37.187Z,101355.47
2022-08-03T14:05:04.340Z,101350.09
2022-08-03T14:07:31.425Z,101359.66
2022-08-03T14:09:58.381Z,101357.75
2022-08-03T14:12:25.264Z,101358.44
2022-08-03T14:14:52.197Z,101348.81
2022-08-03T14:17:19.819Z,101355.84
2022-08-03T14:19:53.343Z,101356.44
2022-08-03T14:22:21.587Z,101358.91
2022-08-03T14:24:49.152Z,101361.31
2022-08-03T14:27:17.036Z,101355.59
2022-08-03T14:29:43.927Z,101357.31
2022-08-03T14:32:13.062Z,101352.22
2022-08-03T14:34:40.900Z,101357.00
2022-08-03T14:37:08.232Z,101354.84
2022-08-03T14:42:22.039Z,101347.47
2022-08-03T14:44:48.945Z,101350.63
2022-08-03T14:47:15.801Z,101342.16
2022-08-03T14:50:37.475Z,101349.81
2022-08-03T14:52:31.027Z,101346.91
2022-08-03T14:54:58.795Z,101346.19
2022-08-03T14:57:26.338Z,101342.53
2022-08-03T14:59:55.561Z,101341.19
2022-08-03T15:02:25.042Z,101344.88
2022-08-03T15:04:52.608Z,101345.91
2022-08-03T15:07:20.691Z,101335.22
2022-08-03T15:09:48.088Z,101344.00
2022-08-03T15:12:15.055Z,101346.47
2022-08-03T15:14:41.955Z,101338.84
2022-08-03T15:17:08.871Z,101340.97
2022-08-03T15:20:01.029Z,101339.78
2022-08-03T15:22:25.227Z,101332.09
2022-08-03T15:25:03.497Z,101333.88
2022-08-03T15:27:30.919Z,101336.97
2022-08-03T15:30:07.153Z,101321.66
2022-08-03T15:32:37.045Z,101325.66
2022-08-03T15:35:04.373Z,101332.69
2022-08-03T15:37:31.240Z,101320.16
2022-08-03T15:40:00.409Z,101327.38
2022-08-03T15:42:29.649Z,101320.41
2022-08-03T15:44:56.651Z,101333.16
2022-08-03T15:47:23.633Z,101337.47
2022-08-03T15:49:50.484Z,101337.47
2022-08-03T15:52:17.470Z,101334.50
2022-08-03T15:54:44.393Z,101335.53
2022-08-03T15:57:11.268Z,101343.06
2022-08-03T15:59:38.173Z,101342.13
2022-08-03T16:02:05.017Z,101345.13
2022-08-03T16:04:31.804Z,101338.66
2022-08-03T16:06:58.594Z,101349.28
2022-08-03T16:09:42.717Z,101350.91
2022-08-03T16:12:14.521Z,101350.94
2022-08-03T16:14:51.841Z,101357.69
2022-08-03T16:17:20.194Z,101362.25
2022-08-03T16:19:47.226Z,101356.72
2022-08-03T16:22:14.499Z,101356.53
2022-08-03T16:24:41.586Z,101353.97
2022-08-03T16:27:37.189Z,101354.81
2022-08-03T16:29:55.533Z,101353.47
2022-08-03T16:32:22.405Z,101355.03
2022-08-03T16:34:49.250Z,101360.66
2022-08-03T16:37:37.493Z,101357.69
2022-08-03T16:40:05.414Z,101350.19
2022-08-03T16:42:35.006Z,101349.16
2022-08-03T16:45:02.397Z,101354.19
2022-08-03T16:47:31.730Z,101362.19
2022-08-03T16:50:00.451Z,101358.31
2022-08-03T16:52:27.585Z,101368.66
2022-08-03T16:54:54.975Z,101369.72
2022-08-03T16:57:55.831Z,101360.28
2022-08-03T17:00:11.789Z,101371.16
2022-08-03T17:02:48.156Z,101377.47
2022-08-03T17:05:15.468Z,101387.47
2022-08-03T17:07:50.545Z,101386.03
2022-08-03T17:10:22.017Z,101392.81
2022-08-03T17:12:54.481Z,101386.59
2022-08-03T17:15:38.448Z,101382.81
2022-08-03T17:18:15.265Z,101380.56
2022-08-03T17:20:46.754Z,101386.91
2022-08-03T17:23:35.295Z,101389.34
2022-08-03T17:26:08.949Z,101389.19
2022-08-03T17:28:51.563Z,101386.88
2022-08-03T17:31:31.344Z,101389.94
2022-08-03T17:34:01.407Z,101408.00
2022-08-03T17:36:47.619Z,101409.66
2022-08-03T17:39:23.545Z,101409.75
2022-08-03T17:42:00.907Z,101411.00
2022-08-03T17:44:41.485Z,101401.94
2022-08-03T17:47:13.120Z,101390.66
2022-08-03T17:49:46.550Z,101389.88
2022-08-03T17:52:35.471Z,101391.72
2022-08-03T17:55:55.169Z,101397.56
2022-08-03T17:58:11.685Z,101394.25
2022-08-03T18:01:03.800Z,101400.41
2022-08-03T18:03:59.249Z,101400.13
2022-08-03T18:06:31.276Z,101402.81
2022-08-03T18:08:59.983Z,101404.81
2022-08-03T18:11:35.722Z,101406.84
2022-08-03T18:14:17.258Z,101408.88
2022-08-03T18:16:47.946Z,101408.25
2022-08-03T18:19:14.960Z,101411.88
2022-08-03T18:22:03.614Z,101411.97
2022-08-03T18:24:30.658Z,101410.25
2022-08-03T18:26:59.812Z,101411.25
2022-08-03T18:29:35.493Z,101413.16
2022-08-03T18:32:12.956Z,101412.31
2022-08-03T18:34:53.652Z,101411.41
2022-08-03T18:37:25.495Z,101406.03
2022-08-03T18:39:57.876Z,101413.09
2022-08-03T18:42:26.813Z,101410.41
2022-08-03T18:44:56.288Z,101403.31
2022-08-03T18:47:52.171Z,101413.81
2022-08-03T18:50:34.170Z,101405.66
2022-08-03T18:53:19.674Z,101409.00
2022-08-03T18:56:02.391Z,101407.16
2022-08-03T18:58:48.656Z,101410.59
2022-08-03T19:02:00.108Z,101416.75
2022-08-03T19:04:20.267Z,101413.97
2022-08-03T19:06:58.923Z,101417.28
2022-08-03T19:09:46.853Z,101410.16
2022-08-03T19:12:30.726Z,101411.22
2022-08-03T19:15:03.701Z,101418.53
2022-08-03T19:17:38.574Z,101420.38
2022-08-03T19:20:08.970Z,101420.28
2022-08-03T19:22:39.855Z,101406.03
2022-08-03T19:25:12.914Z,101411.56
2022-08-03T19:27:43.490Z,101409.75
2022-08-03T19:33:02.291Z,101412.78
2022-08-03T19:35:46.973Z,101407.31
2022-08-03T19:38:28.622Z,101415.56
2022-08-03T19:41:00.947Z,101397.63
2022-08-03T19:43:52.626Z,101402.78
2022-08-03T19:46:30.084Z,101398.69
2022-08-03T19:49:10.293Z,101396.78
2022-08-03T19:52:00.863Z,101402.16
2022-08-03T19:57:23.020Z,101400.09
2022-08-03T19:59:52.490Z,101399.16
2022-08-03T20:02:25.713Z,101399.72
2022-08-03T20:04:59.582Z,101390.03
2022-08-03T20:07:29.086Z,101390.81
2022-08-03T20:09:59.631Z,101386.34
2022-08-03T20:12:34.302Z,101391.75
2022-08-03T20:15:06.563Z,101396.84
2022-08-03T20:17:55.923Z,101394.25
2022-08-03T20:20:23.496Z,101381.75
2022-08-03T20:22:57.759Z,101387.88
2022-08-03T20:25:38.869Z,101387.78
2022-08-03T20:28:26.773Z,101381.91
2022-08-03T20:30:54.113Z,101385.44
2022-08-03T20:33:27.792Z,101386.34
2022-08-03T20:36:05.110Z,101381.41
2022-08-03T20:38:33.088Z,101385.63
2022-08-03T20:41:10.737Z,101382.28
2022-08-03T20:43:37.659Z,101384.00
2022-08-03T20:46:31.781Z,101384.66
2022-08-03T20:48:51.812Z,101388.16
2022-08-03T20:51:20.079Z,101387.97
2022-08-03T20:54:01.780Z,101390.44
2022-08-03T20:56:35.920Z,101386.41
2022-08-03T20:59:07.168Z,101382.94
2022-08-03T21:01:41.922Z,101379.56
2022-08-03T21:04:11.333Z,101383.28
2022-08-03T21:06:54.192Z,101374.53
2022-08-03T21:09:39.792Z,101374.53
2022-08-03T21:12:23.936Z,101371.72
2022-08-03T21:13:02.301Z,101403.97
2022-08-03T21:13:10.762Z,101394.97
2022-08-03T21:15:03.113Z,101370.91
2022-08-03T21:17:41.612Z,101372.81
2022-08-03T21:20:11.442Z,101365.44
2022-08-03T21:22:42.502Z,101367.84
2022-08-03T21:25:10.415Z,101368.06
2022-08-03T21:27:37.750Z,101363.13
2022-08-03T21:30:09.320Z,101362.19
2022-08-03T21:32:40.160Z,101356.91
2022-08-03T21:35:09.915Z,101348.97
2022-08-03T21:37:38.009Z,101349.03
2022-08-03T21:40:05.421Z,101351.41
2022-08-03T21:42:32.293Z,101346.19
2022-08-03T21:44:59.146Z,101344.28
2022-08-03T21:47:26.538Z,101340.06
2022-08-03T21:50:06.319Z,101336.34
2022-08-03T21:52:41.925Z,101344.06
2022-08-03T21:55:18.307Z,101340.53
2022-08-03T21:57:53.550Z,101343.69
2022-08-03T22:00:23.080Z,101345.94
2022-08-03T22:02:56.074Z,101340.22
2022-08-03T22:05:42.393Z,101335.41
2022-08-03T22:08:13.670Z,101332.19
2022-08-03T22:10:43.497Z,101327.19
2022-08-03T22:13:15.010Z,101332.50
2022-08-03T22:15:42.041Z,101333.28
2022-08-03T22:18:09.050Z,101343.88
2022-08-03T22:20:36.283Z,101340.06
2022-08-03T22:23:05.717Z,101333.75
2022-08-03T22:25:35.954Z,101335.69
2022-08-03T22:28:10.837Z,101332.13
2022-08-03T22:30:38.552Z,101319.31
2022-08-03T22:33:11.239Z,101331.38
2022-08-03T22:35:49.027Z,101323.69
2022-08-03T22:38:17.635Z,101335.97
2022-08-03T22:40:46.988Z,101329.41
2022-08-03T22:43:14.093Z,101330.59
2022-08-03T22:46:09.130Z,101325.31
2022-08-03T22:48:34.396Z,101327.88
2022-08-03T22:51:03.492Z,101329.50
2022-08-03T22:53:30.721Z,101331.34
2022-08-03T22:55:57.903Z,101326.06
2022-08-03T22:58:25.237Z,101329.56
2022-08-03T23:00:55.592Z,101320.22
2022-08-03T23:03:58.843Z,101320.13
2022-08-03T23:06:21.626Z,101321.13
2022-08-03T23:08:50.382Z,101317.13
2022-08-03T23:11:18.808Z,101310.44
2022-08-03T23:13:52.231Z,101314.06
2022-08-03T23:16:29.046Z,101313.34
2022-08-03T23:18:58.876Z,101308.13
2022-08-03T23:21:53.971Z,101312.72
2022-08-03T23:24:29.122Z,101308.88
2022-08-03T23:26:57.697Z,101309.53
2022-08-03T23:29:26.188Z,101319.13
2022-08-03T23:31:53.949Z,101307.16
2022-08-03T23:34:40.428Z,101309.41
2022-08-03T23:37:07.741Z,101312.31
2022-08-03T23:39:38.848Z,101301.72
2022-08-03T23:42:06.202Z,101301.53
2022-08-03T23:44:36.796Z,101302.75
2022-08-03T23:47:03.971Z,101305.34
2022-08-03T23:49:31.163Z,101299.88
2022-08-03T23:52:09.258Z,101289.50
2022-08-03T23:55:07.132Z,101305.22
2022-08-03T23:57:51.509Z,101296.50
